Time;durP1;ratioP1;P1;durP2;ratioP2;P2;SDS_P1;SDS_P2;PMS_P1;PMS_P2;Temp;Humidity;BMP_temperature;BMP_pressure;BME280_temperature;BME280_humidity;BME280_pressure;Samples;Min_cycle;Max_cycle;Signal;HPM_P1;HPM_P2
2023/06/27 00:00:54;;;;;;;4.85;4.10;;;;;;;22.66;100.00;138144.78;4992851;28;20187;-58
2023/06/27 00:03:24;;;;;;;5.13;4.93;;;;;;;22.57;100.00;136089.53;4993016;28;20188;-59
2023/06/27 00:05:52;;;;;;;4.63;4.45;;;;;;;22.64;100.00;140567.19;4993224;28;20236;-58
2023/06/27 00:08:19;;;;;;;4.70;4.43;;;;;;;22.63;100.00;134069.81;4992753;28;20645;-58
2023/06/27 00:10:46;;;;;;;4.65;4.38;;;;;;;22.53;100.00;130998.78;4992601;28;20202;-58
2023/06/27 00:13:16;;;;;;;4.70;4.40;;;;;;;22.57;100.00;130669.13;4992755;28;20577;-59
2023/06/27 00:15:43;;;;;;;8.07;4.38;;;;;;;22.62;100.00;132372.84;4992545;28;20211;-59
2023/06/27 00:18:10;;;;;;;4.43;4.13;;;;;;;22.52;100.00;124910.78;4992454;28;20198;-58
2023/06/27 00:20:37;;;;;;;4.35;4.15;;;;;;;22.43;100.00;121515.28;4992647;28;20711;-59
2023/06/27 00:23:18;;;;;;;4.35;3.88;;;;;;;22.47;100.00;126251.88;4993215;28;20195;-58
2023/06/27 00:25:46;;;;;;;5.03;4.60;;;;;;;22.52;100.00;128966.44;4992672;28;20634;-58
2023/06/27 00:28:13;;;;;;;5.82;4.65;;;;;;;22.50;100.00;135395.69;4992322;28;20546;-59
2023/06/27 00:30:40;;;;;;;4.82;4.40;;;;;;;22.52;100.00;142424.34;4992556;28;20633;-58
2023/06/27 00:33:10;;;;;;;6.20;4.95;;;;;;;22.49;100.00;146738.09;4992611;28;20222;-59
2023/06/27 00:35:41;;;;;;;4.80;4.32;;;;;;;22.46;100.00;150559.44;4991800;28;20195;-59
2023/06/27 00:38:08;;;;;;;5.82;4.40;;;;;;;22.44;100.00;151680.31;4992224;28;20262;-59
2023/06/27 00:40:36;;;;;;;5.03;4.70;;;;;;;22.45;100.00;151682.84;4992203;28;20191;-59
2023/06/27 00:43:03;;;;;;;4.70;4.50;;;;;;;22.48;100.00;151689.25;4992451;28;20667;-58
2023/06/27 00:45:30;;;;;;;6.78;4.75;;;;;;;22.50;100.00;151695.59;4992625;28;20331;-58
2023/06/27 00:47:57;;;;;;;5.22;4.93;;;;;;;22.48;100.00;151690.53;4992034;28;20196;-59
2023/06/27 00:50:26;;;;;;;4.60;4.40;;;;;;;22.49;100.00;151691.81;4992699;28;20662;-59
2023/06/27 00:52:54;;;;;;;5.13;4.63;;;;;;;22.41;100.00;151671.34;4992056;28;20196;-59
2023/06/27 00:55:22;;;;;;;5.20;5.00;;;;;;;22.36;100.00;141407.63;4992554;28;20574;-58
2023/06/27 00:57:50;;;;;;;4.93;4.72;;;;;;;22.28;100.00;130268.16;4992557;28;20243;-59
2023/06/27 01:00:18;;;;;;;4.80;4.60;;;;;;;22.22;100.00;130931.53;4992058;28;20192;-58
2023/06/27 01:02:46;;;;;;;5.35;4.80;;;;;;;22.24;100.00;125866.22;4992034;28;20187;-59
2023/06/27 01:05:14;;;;;;;4.78;4.40;;;;;;;22.14;100.00;112360.72;4992055;28;20195;-59
2023/06/27 01:07:47;;;;;;;5.78;5.47;;;;;;;22.05;100.00;105957.66;4992313;28;20250;-59
2023/06/27 01:10:22;;;;;;;5.70;5.22;;;;;;;21.87;100.00;103241.75;4991872;28;20222;-59
2023/06/27 01:12:58;;;;;;;5.18;4.88;;;;;;;21.98;100.00;100911.53;4991879;28;20201;-59
2023/06/27 01:15:28;;;;;;;5.13;4.75;;;;;;;21.92;100.00;101237.41;4992163;28;20207;-59
2023/06/27 01:17:55;;;;;;;6.63;5.20;;;;;;;21.88;100.00;100560.09;4992188;28;20642;-59
2023/06/27 01:20:23;;;;;;;5.13;4.80;;;;;;;21.93;100.00;109295.13;4992081;28;20210;-60
2023/06/27 01:23:02;;;;;;;5.50;5.10;;;;;;;21.90;100.00;114332.81;4992025;28;20594;-59
2023/06/27 01:25:32;;;;;;;5.45;5.25;;;;;;;21.93;100.00;120739.66;4992314;28;20687;-59
2023/06/27 01:27:59;;;;;;;5.03;4.70;;;;;;;21.94;100.00;123439.94;4991945;28;20561;-59
2023/06/27 01:30:26;;;;;;;5.50;5.10;;;;;;;21.94;100.00;129856.69;4991968;28;20608;-59
2023/06/27 01:32:59;;;;;;;5.32;4.97;;;;;;;21.99;100.00;136296.56;4991708;28;20204;-59
2023/06/27 01:35:32;;;;;;;5.00;4.68;;;;;;;22.02;100.00;151573.22;4991884;28;20194;-59
2023/06/27 01:38:05;;;;;;;5.15;4.95;;;;;;;22.03;100.00;151577.00;4991532;28;20288;-59
2023/06/27 01:40:37;;;;;;;5.00;4.80;;;;;;;21.94;100.00;151552.81;4992015;28;20207;-59
2023/06/27 01:43:09;;;;;;;5.22;4.82;;;;;;;22.00;100.00;151568.09;4992008;28;20530;-59
2023/06/27 01:45:38;;;;;;;5.70;5.43;;;;;;;21.99;100.00;151566.81;4991964;28;20568;-59
2023/06/27 01:48:06;;;;;;;5.55;5.13;;;;;;;21.98;100.00;151563.03;4994758;28;20231;-60
2023/06/27 01:50:33;;;;;;;5.47;5.07;;;;;;;21.87;100.00;151536.19;4987306;28;20222;-59
2023/06/27 01:53:00;;;;;;;5.03;4.80;;;;;;;21.97;100.00;151561.75;4995216;28;20302;-59
2023/06/27 01:55:27;;;;;;;5.60;5.27;;;;;;;21.96;100.00;151559.19;4995441;28;20200;-59
2023/06/27 01:57:55;;;;;;;5.43;5.13;;;;;;;21.94;100.00;151554.06;4995280;28;20707;-59
2023/06/27 02:00:23;;;;;;;6.10;5.57;;;;;;;21.91;100.00;151546.38;4995247;28;20266;-59
2023/06/27 02:02:50;;;;;;;5.82;5.35;;;;;;;21.93;100.00;151551.53;4994928;28;20199;-59
2023/06/27 02:05:17;;;;;;;5.47;5.28;;;;;;;21.84;100.00;151528.53;4995026;28;20238;-59
2023/06/27 02:07:44;;;;;;;5.85;5.55;;;;;;;21.94;100.00;151552.81;4995141;28;20196;-58
2023/06/27 02:10:11;;;;;;;5.88;5.38;;;;;;;21.87;100.00;151537.47;4994681;28;20302;-58
2023/06/27 02:12:38;;;;;;;5.88;5.55;;;;;;;21.80;100.00;151519.63;4994828;28;20199;-58
2023/06/27 02:15:08;;;;;;;5.20;5.00;;;;;;;21.91;100.00;151545.09;4995215;28;20202;-59
2023/06/27 02:17:35;;;;;;;5.70;5.43;;;;;;;21.89;100.00;151541.31;4994752;28;20660;-59
2023/06/27 02:20:02;;;;;;;5.80;5.45;;;;;;;21.87;100.00;151536.19;4994716;28;20550;-59
2023/06/27 02:22:28;;;;;;;8.75;6.22;;;;;;;21.91;100.00;151545.09;4994420;28;20231;-58
2023/06/27 02:24:55;;;;;;;5.80;5.47;;;;;;;21.92;100.00;151547.66;4994688;28;20192;-59
2023/06/27 02:27:22;;;;;;;5.50;5.20;;;;;;;21.98;100.00;151564.25;4994775;28;20191;-59
2023/06/27 02:29:49;;;;;;;5.90;5.43;;;;;;;22.00;100.00;151568.09;4994371;28;20236;-58
2023/06/27 02:32:17;;;;;;;5.75;5.35;;;;;;;21.97;100.00;151561.75;4994440;28;20211;-58
2023/06/27 02:34:44;;;;;;;5.53;5.10;;;;;;;22.05;100.00;151582.13;4994716;28;20199;-59
2023/06/27 02:37:11;;;;;;;5.88;5.60;;;;;;;22.00;100.00;151569.38;4994686;28;20217;-59
2023/06/27 02:39:38;;;;;;;5.90;5.40;;;;;;;21.96;100.00;151557.91;4994721;28;20557;-59
2023/06/27 02:42:05;;;;;;;5.15;4.85;;;;;;;22.05;100.00;151582.13;4994640;28;20633;-59
2023/06/27 02:44:33;;;;;;;6.32;5.90;;;;;;;22.06;100.00;151584.69;4994423;28;20214;-58
2023/06/27 02:47:00;;;;;;;5.70;5.28;;;;;;;22.05;100.00;151580.84;4993956;28;20252;-60
2023/06/27 02:49:28;;;;;;;5.70;5.00;;;;;;;22.09;100.00;151592.34;4994072;28;20215;-59
2023/06/27 02:51:55;;;;;;;5.60;5.20;;;;;;;22.03;100.00;151577.00;4994269;28;20187;-59
2023/06/27 02:54:22;;;;;;;4.85;4.55;;;;;;;22.19;100.00;151616.56;4994021;28;20196;-59
2023/06/27 02:56:49;;;;;;;5.57;5.10;;;;;;;22.08;100.00;151589.78;4993829;28;20206;-58
2023/06/27 02:59:16;;;;;;;6.25;4.78;;;;;;;22.24;100.00;151630.56;4993846;28;20215;-60
2023/06/27 03:01:43;;;;;;;5.50;5.10;;;;;;;22.26;100.00;151635.69;4993776;28;20206;-59
2023/06/27 03:04:10;;;;;;;10.13;5.70;;;;;;;22.28;100.00;151640.75;4993670;28;20199;-59
2023/06/27 03:06:39;;;;;;;5.68;5.47;;;;;;;22.31;100.00;151648.44;4993882;28;20198;-59
2023/06/27 03:09:05;;;;;;;6.10;5.75;;;;;;;22.41;100.00;151671.34;4993603;28;20191;-59
2023/06/27 03:11:32;;;;;;;5.40;5.00;;;;;;;22.48;100.00;151689.25;4993698;28;20586;-59
2023/06/27 03:13:59;;;;;;;5.32;5.13;;;;;;;22.61;100.00;151722.41;4993862;28;20270;-59
2023/06/27 03:16:26;;;;;;;5.95;5.53;;;;;;;22.75;100.00;151759.41;4993619;28;20191;-59
2023/06/27 03:18:53;;;;;;;4.60;4.40;;;;;;;23.04;100.00;151832.13;4993808;28;20668;-60
2023/06/27 03:21:20;;;;;;;5.15;4.95;;;;;;;23.68;100.00;151992.94;4993600;28;20242;-59
2023/06/27 03:31:39;;;;;;;5.40;5.20;;;;;;;23.96;100.00;152063.19;5019427;28;20692;-84
2023/06/27 03:37:56;;;;;;;6.55;5.93;;;;;;;23.95;100.00;152061.91;5008705;28;20667;-84
2023/06/27 08:52:56;;;;;;;3.88;2.30;;;;;;;31.81;40.67;154051.28;5041332;23;20746;-61
2023/06/27 08:55:32;;;;;;;2.80;2.13;;;;;;;32.52;35.29;154232.22;5034037;28;20197;-61
2023/06/27 08:58:07;;;;;;;2.40;2.30;;;;;;;32.33;38.65;154182.19;5034382;28;20615;-63
2023/06/27 09:00:35;;;;;;;2.53;2.30;;;;;;;32.05;39.16;154111.53;5033783;28;20544;-63
2023/06/27 09:03:05;;;;;;;2.55;2.45;;;;;;;32.83;38.22;154310.56;5034139;28;20197;-62
2023/06/27 09:05:33;;;;;;;2.40;2.22;;;;;;;33.63;37.27;154512.19;5033826;28;20678;-62
2023/06/27 09:08:01;;;;;;;2.65;2.55;;;;;;;33.56;36.33;154494.22;5034159;28;20560;-62
2023/06/27 09:10:30;;;;;;;7.70;3.20;;;;;;;32.69;37.41;154273.34;5033458;28;20197;-64
2023/06/27 09:12:59;;;;;;;2.80;2.65;;;;;;;32.08;38.79;154120.56;5033286;28;20186;-61
2023/06/27 09:15:26;;;;;;;2.50;2.30;;;;;;;31.88;39.53;154067.91;5033478;28;20664;-62
2023/06/27 09:17:53;;;;;;;3.38;2.22;;;;;;;32.89;41.67;154324.66;5033754;28;20229;-63
2023/06/27 09:20:20;;;;;;;2.30;2.20;;;;;;;33.32;40.41;154433.84;5033400;28;20655;-63
2023/06/27 09:22:48;;;;;;;3.17;2.20;;;;;;;33.47;38.08;154473.69;5033155;28;20190;-63
2023/06/27 09:25:19;;;;;;;2.47;2.38;;;;;;;33.79;37.08;154554.59;5032920;28;20201;-63
2023/06/27 09:27:47;;;;;;;2.40;2.30;;;;;;;33.71;37.23;154534.06;5032894;28;20210;-64
2023/06/27 09:30:14;;;;;;;2.72;2.58;;;;;;;33.72;38.48;154536.63;5032971;28;20224;-62
2023/06/27 09:32:55;;;;;;;3.47;3.17;;;;;;;33.72;36.87;154535.34;5033071;28;20190;-61
2023/06/27 09:35:23;;;;;;;2.33;2.22;;;;;;;33.87;38.05;154575.16;5033119;28;20513;-63
2023/06/27 09:37:50;;;;;;;3.78;2.67;;;;;;;33.32;37.18;154435.13;5033685;28;20539;-62
2023/06/27 09:40:20;;;;;;;2.72;2.63;;;;;;;32.99;37.77;154350.34;5033022;28;20216;-62
2023/06/27 09:42:54;;;;;;;2.35;2.25;;;;;;;32.90;38.82;154328.53;5032665;28;20240;-62
2023/06/27 09:45:23;;;;;;;2.60;2.50;;;;;;;33.23;40.28;154412.00;5033095;28;20202;-63
2023/06/27 09:47:50;;;;;;;2.85;2.22;;;;;;;33.58;39.71;154500.63;5032924;28;20206;-63
2023/06/27 09:50:17;;;;;;;3.95;2.50;;;;;;;33.87;38.17;154575.16;5032883;28;20627;-64
2023/06/27 09:52:52;;;;;;;4.05;2.80;;;;;;;34.23;37.42;154665.13;5032480;28;20332;-63
2023/06/27 09:55:21;;;;;;;4.22;3.30;;;;;;;34.80;37.09;154811.63;5032472;28;20194;-62
2023/06/27 09:57:48;;;;;;;3.05;2.95;;;;;;;34.53;35.86;154740.91;5032749;28;20559;-62
2023/06/27 10:00:20;;;;;;;2.80;2.70;;;;;;;34.74;36.21;154796.22;5032514;28;20186;-62
2023/06/27 10:02:48;;;;;;;2.95;2.63;;;;;;;35.60;35.94;155013.50;5032654;28;20664;-62
2023/06/27 10:05:19;;;;;;;2.80;2.70;;;;;;;36.01;34.79;155118.94;5032543;28;20186;-62
2023/06/27 10:07:48;;;;;;;10.10;2.90;;;;;;;36.31;35.16;155194.88;5032617;28;20631;-63
2023/06/27 10:10:15;;;;;;;2.80;2.60;;;;;;;36.28;33.17;155185.88;5033046;28;20190;-63
2023/06/27 10:12:44;;;;;;;3.42;2.60;;;;;;;36.37;33.37;155210.28;5032401;28;20190;-63
2023/06/27 10:15:14;;;;;;;2.88;2.72;;;;;;;35.87;34.04;155081.63;5029503;28;20221;-63
2023/06/27 10:17:41;;;;;;;4.03;2.70;;;;;;;34.80;36.07;154810.31;5012389;28;20191;-62
2023/06/27 10:20:11;;;;;;;3.25;3.05;;;;;;;34.31;37.92;154686.97;5028091;28;20194;-63
2023/06/27 10:22:42;;;;;;;3.63;2.63;;;;;;;33.57;38.79;154498.03;5032099;28;20195;-62
2023/06/27 10:25:13;;;;;;;3.92;2.85;;;;;;;33.34;38.88;154439.00;5032000;28;20305;-63
2023/06/27 10:27:42;;;;;;;2.58;2.47;;;;;;;32.84;39.38;154311.88;5032512;28;20210;-62
2023/06/27 10:30:25;;;;;;;2.83;2.72;;;;;;;32.57;39.19;154243.78;5032325;28;20580;-63
2023/06/27 10:33:07;;;;;;;3.17;2.53;;;;;;;31.85;41.09;154061.53;5031849;28;20201;-62
2023/06/27 10:35:39;;;;;;;3.83;2.97;;;;;;;31.93;41.27;154082.06;5031721;28;20658;-63
2023/06/27 10:38:08;;;;;;;3.05;2.80;;;;;;;31.66;41.46;154014.06;5031704;28;20182;-62
2023/06/27 10:41:09;;;;;;;3.13;3.03;;;;;;;31.57;43.36;153990.94;5031835;28;20197;-62
2023/06/27 10:43:38;;;;;;;4.25;2.65;;;;;;;31.43;44.01;153953.72;5029432;28;20238;-62
2023/06/27 10:46:10;;;;;;;3.00;2.65;;;;;;;31.54;43.27;153981.94;5031821;28;20195;-61
2023/06/27 10:48:50;;;;;;;5.53;3.10;;;;;;;31.55;43.51;153984.56;5031918;28;20674;-62
2023/06/27 10:51:19;;;;;;;2.95;2.85;;;;;;;30.82;43.78;153799.78;5031958;28;20211;-63
2023/06/27 10:54:14;;;;;;;3.22;3.05;;;;;;;30.56;45.48;153734.41;5031740;28;20698;-62
2023/06/27 10:56:43;;;;;;;4.18;3.67;;;;;;;30.94;44.48;153830.56;5032065;28;20273;-60
2023/06/27 10:59:11;;;;;;;3.53;3.33;;;;;;;31.13;43.26;153879.34;5031421;28;20197;-61
2023/06/27 11:01:44;;;;;;;5.50;3.00;;;;;;;31.38;43.22;153940.91;5031499;28;20194;-61
2023/06/27 11:04:18;;;;;;;3.10;2.90;;;;;;;31.51;42.40;153974.25;5031201;28;20182;-62
2023/06/27 11:06:46;;;;;;;3.90;3.05;;;;;;;31.58;43.14;153992.25;5031114;28;20277;-63
2023/06/27 11:09:15;;;;;;;3.00;2.80;;;;;;;31.62;43.80;154002.50;5031925;28;20620;-61
2023/06/27 11:11:42;;;;;;;3.65;3.35;;;;;;;31.64;42.86;154007.66;5031582;28;20186;-63
2023/06/27 11:14:11;;;;;;;6.10;2.88;;;;;;;31.69;43.98;154020.50;5031611;28;20280;-61
2023/06/27 11:16:38;;;;;;;5.40;3.20;;;;;;;31.79;44.20;154044.81;5031483;28;20216;-61
2023/06/27 11:19:09;;;;;;;9.65;4.05;;;;;;;31.56;43.31;153988.44;5030325;28;20194;-62
2023/06/27 11:21:38;;;;;;;3.55;3.30;;;;;;;31.15;44.94;153884.47;5031371;28;20287;-61
2023/06/27 11:24:07;;;;;;;3.67;3.22;;;;;;;30.83;46.22;153802.38;5031606;28;20197;-62
2023/06/27 11:26:34;;;;;;;8.93;2.97;;;;;;;30.93;46.17;153828.03;5031249;28;20198;-61
2023/06/27 11:29:03;;;;;;;4.25;3.25;;;;;;;30.63;47.18;153752.41;5031128;28;20186;-62
2023/06/27 11:31:30;;;;;;;4.00;3.67;;;;;;;30.63;46.71;153752.41;5031197;28;20194;-62
2023/06/27 11:33:58;;;;;;;3.20;3.08;;;;;;;30.22;47.24;153648.47;5030524;28;20194;-61
2023/06/27 11:36:26;;;;;;;4.03;2.95;;;;;;;30.13;47.76;153625.41;5031380;28;20193;-62
2023/06/27 11:38:54;;;;;;;3.33;3.22;;;;;;;30.13;47.22;153624.19;5031424;28;20658;-62
2023/06/27 11:41:21;;;;;;;8.32;2.90;;;;;;;30.19;48.81;153640.81;5031849;28;20210;-61
2023/06/27 11:43:48;;;;;;;6.60;3.10;;;;;;;30.05;48.22;153603.63;5032280;28;20201;-62
2023/06/27 11:46:19;;;;;;;8.15;2.60;;;;;;;30.02;49.23;153595.94;5031124;28;20190;-61
2023/06/27 11:48:47;;;;;;;4.30;3.20;;;;;;;29.96;48.56;153581.84;5033425;28;20532;-61
2023/06/27 11:51:14;;;;;;;6.32;3.00;;;;;;;29.82;49.80;153545.94;5035096;28;20243;-63
2023/06/27 11:53:49;;;;;;;3.47;3.28;;;;;;;29.85;50.27;153553.63;5035184;28;20237;-61
2023/06/27 11:56:17;;;;;;;11.98;2.90;;;;;;;29.66;50.28;153506.25;5035091;28;20251;-61
2023/06/27 11:58:47;;;;;;;8.07;3.30;;;;;;;29.52;51.70;153469.06;5034409;28;20202;-61
2023/06/27 12:01:16;;;;;;;4.18;3.30;;;;;;;29.70;52.67;153516.50;5034876;28;20281;-65
2023/06/27 12:03:48;;;;;;;3.13;2.65;;;;;;;29.43;51.37;153447.28;5034736;28;20240;-63
2023/06/27 12:06:26;;;;;;;2.53;2.42;;;;;;;29.72;51.27;153521.59;5034593;28;20245;-63
2023/06/27 12:08:55;;;;;;;2.67;2.53;;;;;;;29.38;52.19;153435.75;5034890;28;20801;-61
2023/06/27 12:11:29;;;;;;;2.38;2.28;;;;;;;29.21;55.13;153392.16;5034958;28;20551;-61
2023/06/27 12:13:56;;;;;;;2.30;2.20;;;;;;;29.35;53.60;153428.09;5034618;28;20197;-62
2023/06/27 12:16:25;;;;;;;3.20;2.83;;;;;;;29.09;55.91;153360.13;5035086;28;20581;-62
2023/06/27 12:18:52;;;;;;;3.25;2.65;;;;;;;29.15;59.63;153376.81;5034698;28;20741;-63
2023/06/27 12:21:19;;;;;;;2.65;2.55;;;;;;;29.05;63.60;153352.47;5034664;28;20194;-62
2023/06/27 12:23:46;;;;;;;3.08;2.83;;;;;;;28.94;69.38;153323.03;5034652;28;20304;-60
2023/06/27 12:26:14;;;;;;;6.93;2.85;;;;;;;29.09;69.66;153360.13;5034354;28;20624;-62
2023/06/27 12:28:55;;;;;;;3.00;2.90;;;;;;;29.14;61.71;153372.94;5034092;28;20225;-62
2023/06/27 12:31:23;;;;;;;4.18;2.53;;;;;;;29.30;73.24;153413.97;5034245;28;20194;-62
2023/06/27 12:33:51;;;;;;;2.90;2.70;;;;;;;29.16;79.55;153379.34;5033918;28;20200;-61
2023/06/27 12:36:18;;;;;;;3.08;2.72;;;;;;;28.84;84.59;153297.38;5034113;28;20190;-61
2023/06/27 12:38:45;;;;;;;7.85;2.85;;;;;;;28.63;90.73;153243.56;5033885;28;20249;-62
2023/06/27 12:41:14;;;;;;;9.45;3.22;;;;;;;28.63;93.68;153244.84;5033991;28;20248;-62
2023/06/27 12:43:41;;;;;;;2.97;2.88;;;;;;;28.81;89.17;153289.72;5034388;28;20186;-63
2023/06/27 12:46:07;;;;;;;3.08;2.97;;;;;;;28.76;95.51;153276.91;5034413;28;20587;-62
2023/06/27 12:48:35;;;;;;;3.45;3.25;;;;;;;28.75;100.00;153274.34;5034089;28;20218;-59
2023/06/27 12:51:02;;;;;;;3.60;3.38;;;;;;;28.15;100.00;153123.22;5034535;28;20217;-61
2023/06/27 12:53:29;;;;;;;3.47;3.38;;;;;;;28.33;100.00;153169.31;5033730;28;20225;-62
2023/06/27 12:55:58;;;;;;;3.20;3.10;;;;;;;28.38;100.00;153180.84;5034021;28;20284;-62
2023/06/27 12:58:27;;;;;;;2.72;2.63;;;;;;;28.24;99.13;153146.25;5033855;28;20563;-64
2023/06/27 13:00:56;;;;;;;3.45;3.25;;;;;;;27.93;100.00;153068.13;5033925;28;20194;-63
2023/06/27 13:03:23;;;;;;;3.15;3.03;;;;;;;28.11;100.00;153114.25;5033966;28;20190;-65
2023/06/27 13:05:51;;;;;;;3.80;3.60;;;;;;;28.27;100.00;153152.63;5034153;28;20241;-63
2023/06/27 13:08:18;;;;;;;3.95;3.45;;;;;;;28.25;100.00;153148.84;5033849;28;20304;-62
2023/06/27 13:10:45;;;;;;;5.10;4.68;;;;;;;28.19;100.00;153133.44;5034021;28;20591;-63
2023/06/27 13:13:12;;;;;;;3.95;3.63;;;;;;;28.34;100.00;153170.59;5033968;28;20187;-62
2023/06/27 13:15:40;;;;;;;3.53;3.38;;;;;;;28.27;100.00;153152.63;5033794;28;20663;-63
2023/06/27 13:18:07;;;;;;;3.33;3.13;;;;;;;28.03;100.00;153093.75;5033711;28;20190;-62
2023/06/27 13:20:34;;;;;;;6.47;3.50;;;;;;;28.10;100.00;153111.69;5033751;28;20205;-61
2023/06/27 13:23:04;;;;;;;6.45;3.03;;;;;;;27.99;100.00;153083.50;5033661;28;20289;-62
2023/06/27 13:25:31;;;;;;;4.10;3.72;;;;;;;27.84;100.00;153045.09;5034072;28;20186;-62
2023/06/27 13:28:01;;;;;;;3.75;3.45;;;;;;;27.71;100.00;153013.09;5033148;28;20309;-63
2023/06/27 13:30:30;;;;;;;5.88;3.80;;;;;;;27.91;100.00;153061.75;5033247;28;20240;-62
2023/06/27 13:33:01;;;;;;;3.50;3.20;;;;;;;27.85;100.00;153046.38;5032872;28;20663;-61
2023/06/27 13:35:29;;;;;;;4.40;3.55;;;;;;;27.88;100.00;153055.31;5033077;28;20194;-62
2023/06/27 13:37:56;;;;;;;4.28;3.83;;;;;;;27.88;100.00;153054.06;5031797;28;20210;-62
2023/06/27 13:40:23;;;;;;;4.30;3.95;;;;;;;27.83;100.00;153042.56;5032951;28;20285;-63
2023/06/27 13:42:49;;;;;;;4.13;3.75;;;;;;;27.82;100.00;153038.69;5033079;28;20289;-62
2023/06/27 13:45:19;;;;;;;3.63;3.53;;;;;;;27.84;100.00;153043.84;5033221;28;20191;-62
2023/06/27 13:47:46;;;;;;;3.53;3.30;;;;;;;27.75;100.00;153022.09;5032899;28;20214;-62
2023/06/27 13:50:14;;;;;;;5.93;3.88;;;;;;;27.76;100.00;153024.59;5033052;28;20568;-63
2023/06/27 13:52:44;;;;;;;3.72;3.45;;;;;;;27.67;100.00;153002.84;5032892;28;20233;-63
2023/06/27 13:55:11;;;;;;;3.08;2.97;;;;;;;27.56;100.00;152973.44;5015495;28;20202;-62
2023/06/27 13:57:38;;;;;;;3.72;3.42;;;;;;;27.31;100.00;152910.69;5032787;28;20194;-61
2023/06/27 14:00:06;;;;;;;3.30;2.88;;;;;;;27.38;100.00;152928.59;5033116;28;20575;-62
2023/06/27 14:02:34;;;;;;;4.82;4.50;;;;;;;27.51;100.00;152960.63;5033146;28;20192;-63
2023/06/27 14:05:01;;;;;;;5.53;4.13;;;;;;;27.58;100.00;152979.81;5033049;28;20652;-62
2023/06/27 14:07:29;;;;;;;3.60;3.45;;;;;;;27.55;100.00;152972.16;5032859;28;20268;-61
2023/06/27 14:09:58;;;;;;;3.33;3.13;;;;;;;27.50;100.00;152959.34;5032268;28;20210;-63
2023/06/27 14:12:25;;;;;;;3.40;3.20;;;;;;;27.66;100.00;153000.34;5031945;28;20194;-62
2023/06/27 14:14:52;;;;;;;3.13;3.03;;;;;;;27.71;100.00;153011.81;5032465;28;20569;-63
2023/06/27 14:17:19;;;;;;;3.22;3.13;;;;;;;27.73;100.00;153015.66;5014817;28;20197;-60
2023/06/27 14:19:46;;;;;;;3.65;3.55;;;;;;;27.79;100.00;153031.03;5031887;28;20198;-62
2023/06/27 14:22:13;;;;;;;3.58;3.38;;;;;;;27.80;100.00;153034.84;5032187;28;20186;-61
2023/06/27 14:24:41;;;;;;;3.65;3.35;;;;;;;27.71;100.00;153013.09;5032347;28;20225;-62
2023/06/27 14:27:09;;;;;;;3.25;3.10;;;;;;;27.81;100.00;153036.13;5014735;28;20556;-62
2023/06/27 14:29:37;;;;;;;3.15;2.92;;;;;;;27.89;100.00;153057.88;5032170;28;20237;-61
2023/06/27 14:32:04;;;;;;;3.85;3.65;;;;;;;27.86;100.00;153048.94;5031822;28;20213;-63
2023/06/27 14:34:31;;;;;;;4.00;3.60;;;;;;;27.66;100.00;153000.34;5031998;28;20286;-62
2023/06/27 14:36:58;;;;;;;8.55;3.63;;;;;;;27.53;100.00;152967.06;5031885;28;20186;-62
2023/06/27 14:39:25;;;;;;;3.50;3.30;;;;;;;27.47;100.00;152950.34;5032182;28;20292;-63
2023/06/27 14:41:53;;;;;;;5.10;3.80;;;;;;;27.35;100.00;152920.94;5032117;28;20194;-63
2023/06/27 14:44:20;;;;;;;3.72;3.53;;;;;;;27.35;100.00;152920.94;5032292;28;20667;-62
2023/06/27 14:46:47;;;;;;;4.30;3.90;;;;;;;27.41;100.00;152935.03;5031800;28;20698;-63
2023/06/27 14:49:14;;;;;;;3.33;3.22;;;;;;;27.51;100.00;152960.63;5032152;28;20217;-61
2023/06/27 14:51:41;;;;;;;3.53;3.40;;;;;;;27.48;100.00;152954.25;5032131;28;20582;-62
2023/06/27 14:54:08;;;;;;;4.80;3.20;;;;;;;27.26;100.00;152897.91;5031594;28;20234;-62
2023/06/27 14:56:35;;;;;;;3.38;3.15;;;;;;;27.03;100.00;152839.09;5031981;28;20643;-61
2023/06/27 14:59:03;;;;;;;3.47;3.25;;;;;;;27.10;100.00;152858.25;5031562;28;20191;-62
2023/06/27 15:01:30;;;;;;;3.17;3.08;;;;;;;27.39;100.00;152931.16;5031848;28;20196;-62
2023/06/27 15:03:57;;;;;;;3.97;3.60;;;;;;;27.35;100.00;152919.66;5030342;28;20197;-61
2023/06/27 15:06:24;;;;;;;6.15;3.53;;;;;;;27.60;100.00;152983.66;5031892;28;20194;-62
2023/06/27 15:08:51;;;;;;;3.30;3.20;;;;;;;27.58;100.00;152978.56;5031468;28;20209;-65
2023/06/27 15:11:18;;;;;;;3.65;3.45;;;;;;;27.56;100.00;152973.44;5031443;28;20278;-62
2023/06/27 15:13:45;;;;;;;6.55;3.47;;;;;;;27.72;100.00;153014.38;5031536;28;20191;-62
2023/06/27 15:16:14;;;;;;;3.35;3.10;;;;;;;27.64;100.00;152993.91;5031982;28;20579;-62
2023/06/27 15:18:41;;;;;;;3.63;3.38;;;;;;;27.60;100.00;152984.97;5031826;28;20596;-61
2023/06/27 15:21:08;;;;;;;3.00;2.90;;;;;;;27.73;100.00;153015.66;5031945;28;20567;-62
2023/06/27 15:23:37;;;;;;;2.97;2.78;;;;;;;27.69;100.00;153008.00;5031679;28;20567;-62
2023/06/27 15:26:04;;;;;;;5.07;3.40;;;;;;;27.85;100.00;153047.66;5031699;28;20590;-61
2023/06/27 15:28:33;;;;;;;3.20;3.08;;;;;;;27.88;100.00;153055.31;5031437;28;20213;-62
2023/06/27 15:31:00;;;;;;;5.50;3.17;;;;;;;27.85;100.00;153046.38;5031409;28;20239;-62
2023/06/27 15:33:29;;;;;;;4.05;2.95;;;;;;;27.61;97.84;152986.25;5031791;28;20193;-61
2023/06/27 15:35:56;;;;;;;3.40;2.67;;;;;;;27.82;100.00;153040.00;5031551;28;20648;-61
2023/06/27 15:38:23;;;;;;;3.17;2.97;;;;;;;27.86;99.19;153048.94;5031707;28;20193;-62
2023/06/27 15:40:50;;;;;;;3.55;3.25;;;;;;;27.90;100.00;153059.16;5031406;28;20190;-61
2023/06/27 15:43:17;;;;;;;3.78;2.55;;;;;;;28.04;100.00;153095.03;5031634;28;20197;-61
2023/06/27 15:45:44;;;;;;;3.30;3.20;;;;;;;27.94;99.22;153069.41;5031593;28;20194;-61
2023/06/27 15:48:11;;;;;;;3.00;2.80;;;;;;;28.05;99.13;153097.59;5031178;28;20221;-61
2023/06/27 15:50:39;;;;;;;3.28;3.10;;;;;;;28.07;100.00;153102.69;5031196;28;20186;-61
2023/06/27 15:53:06;;;;;;;2.67;2.58;;;;;;;27.99;100.00;153082.22;5031168;28;20612;-61
2023/06/27 15:55:35;;;;;;;5.75;2.92;;;;;;;27.94;100.00;153069.41;5031251;28;20206;-61
2023/06/27 15:58:02;;;;;;;3.35;2.65;;;;;;;27.85;100.00;153046.38;5031540;28;20198;-62
2023/06/27 16:00:28;;;;;;;3.00;2.70;;;;;;;27.83;100.00;153042.56;5031433;28;20182;-61
2023/06/27 16:02:57;;;;;;;2.88;2.63;;;;;;;27.83;90.13;153041.28;5031056;28;20190;-62
2023/06/27 16:05:24;;;;;;;4.53;3.30;;;;;;;27.80;87.64;153034.84;5031157;28;20186;-61
2023/06/27 16:07:52;;;;;;;2.42;2.30;;;;;;;27.85;89.43;153046.38;5031049;28;20252;-62
2023/06/27 16:10:19;;;;;;;3.03;2.58;;;;;;;27.68;87.05;153004.13;5031550;28;20272;-61
2023/06/27 16:12:46;;;;;;;5.35;2.55;;;;;;;27.80;81.02;153034.84;5031343;28;20596;-60
2023/06/27 16:15:13;;;;;;;2.20;2.10;;;;;;;27.83;79.55;153041.28;5031261;28;20230;-61
2023/06/27 16:17:40;;;;;;;2.58;2.38;;;;;;;27.75;85.11;153020.81;5031338;28;20191;-61
2023/06/27 16:20:09;;;;;;;2.65;2.45;;;;;;;27.73;84.60;153015.66;5031404;28;20186;-61
2023/06/27 16:22:36;;;;;;;2.80;2.55;;;;;;;27.72;78.69;153014.38;5030979;28;20195;-62
2023/06/27 16:25:06;;;;;;;7.82;2.58;;;;;;;27.88;81.73;153055.31;5013458;28;20197;-61
2023/06/27 16:27:32;;;;;;;3.47;2.30;;;;;;;27.75;83.30;153020.81;5031030;28;20194;-61
2023/06/27 16:29:59;;;;;;;2.70;2.60;;;;;;;27.87;84.42;153051.50;5030807;28;20591;-60
2023/06/27 16:32:26;;;;;;;2.88;2.67;;;;;;;27.88;81.94;153055.31;5030902;28;20194;-60
2023/06/27 16:34:57;;;;;;;3.38;2.47;;;;;;;27.94;83.35;153070.69;5033040;28;20205;-61
2023/06/27 16:37:24;;;;;;;2.88;2.78;;;;;;;27.87;77.40;153051.50;5034853;28;20267;-62
2023/06/27 16:39:54;;;;;;;2.55;2.35;;;;;;;27.87;76.97;153051.50;5034807;28;20663;-61
2023/06/27 16:42:22;;;;;;;3.05;2.25;;;;;;;27.83;74.83;153042.56;5034429;28;20194;-61
2023/06/27 16:44:49;;;;;;;3.47;2.65;;;;;;;27.79;76.22;153032.31;5034635;28;20194;-61
2023/06/27 16:47:16;;;;;;;2.80;2.60;;;;;;;27.80;76.97;153034.84;5034307;28;20194;-62
2023/06/27 16:49:42;;;;;;;2.40;2.30;;;;;;;27.73;76.05;153016.94;5034516;28;20221;-61